createdAt,value
2017-08-17T00:01:03.140Z,11.60
2017-08-17T00:03:32.224Z,13.70
2017-08-17T00:06:02.332Z,9.60
2017-08-17T00:08:30.637Z,7.20
2017-08-17T00:10:58.971Z,6.23
2017-08-17T00:13:27.272Z,6.90
2017-08-17T00:15:55.600Z,11.00
2017-08-17T00:18:23.908Z,11.20
2017-08-17T00:20:52.236Z,7.07
2017-08-17T00:23:20.536Z,6.90
2017-08-17T00:25:48.880Z,7.30
2017-08-17T00:28:17.188Z,10.67
2017-08-17T00:30:45.489Z,6.53
2017-08-17T00:33:13.816Z,6.67
2017-08-17T00:35:42.142Z,9.43
2017-08-17T00:38:10.477Z,11.13
2017-08-17T00:40:38.777Z,10.50
2017-08-17T00:43:07.097Z,9.07
2017-08-17T00:45:36.185Z,15.13
2017-08-17T00:48:04.517Z,16.80
2017-08-17T00:50:32.822Z,14.60
2017-08-17T00:53:01.140Z,9.33
2017-08-17T00:55:29.446Z,8.27
2017-08-17T00:57:57.788Z,10.37
2017-08-17T01:00:26.100Z,12.73
2017-08-17T01:02:54.428Z,10.10
2017-08-17T01:05:22.729Z,11.80
2017-08-17T01:07:51.832Z,8.73
2017-08-17T01:10:20.921Z,13.23
2017-08-17T01:15:50.057Z,8.97
2017-08-17T01:18:18.400Z,19.43
2017-08-17T01:20:46.698Z,8.70
2017-08-17T01:23:15.041Z,10.57
2017-08-17T01:25:43.342Z,23.33
2017-08-17T01:28:12.452Z,13.20
2017-08-17T01:30:40.774Z,17.33
2017-08-17T01:33:09.096Z,10.40
2017-08-17T01:35:37.396Z,8.17
2017-08-17T01:38:06.489Z,16.63
2017-08-17T01:40:35.567Z,15.13
2017-08-17T01:43:03.864Z,18.73
2017-08-17T01:45:32.956Z,18.20
2017-08-17T01:48:01.257Z,10.30
2017-08-17T01:50:29.581Z,8.77
2017-08-17T01:52:57.876Z,10.33
2017-08-17T01:55:26.197Z,13.93
2017-08-17T01:57:54.492Z,8.70
2017-08-17T02:00:22.816Z,10.33
2017-08-17T02:02:51.117Z,10.57
2017-08-17T02:05:20.212Z,10.07
2017-08-17T02:07:49.273Z,9.70
2017-08-17T02:10:17.593Z,10.73
2017-08-17T02:12:46.658Z,11.13
2017-08-17T02:15:14.972Z,8.57
2017-08-17T02:17:43.272Z,10.63
2017-08-17T02:20:11.613Z,10.33
2017-08-17T02:22:40.689Z,11.53
2017-08-17T02:25:08.981Z,17.10
2017-08-17T02:27:38.080Z,13.67
2017-08-17T02:30:06.384Z,11.67
2017-08-17T02:35:35.084Z,7.97
2017-08-17T02:38:03.406Z,10.23
2017-08-17T02:40:31.707Z,12.50
2017-08-17T02:43:00.033Z,10.67
2017-08-17T02:45:28.338Z,18.20
2017-08-17T02:47:56.661Z,12.07
2017-08-17T02:50:25.750Z,13.13
2017-08-17T02:52:54.848Z,12.50
2017-08-17T02:55:23.179Z,10.70
2017-08-17T02:57:51.501Z,10.80
2017-08-17T03:00:19.805Z,14.77
2017-08-17T03:02:48.163Z,10.30
2017-08-17T03:05:17.237Z,7.20
2017-08-17T03:07:45.533Z,10.47
2017-08-17T03:10:14.624Z,8.10
2017-08-17T03:12:42.935Z,12.10
2017-08-17T03:15:11.262Z,10.17
2017-08-17T03:17:39.574Z,12.90
2017-08-17T03:20:08.665Z,8.90
2017-08-17T03:22:37.747Z,8.20
2017-08-17T03:25:06.089Z,14.40
2017-08-17T03:27:34.395Z,8.87
2017-08-17T03:30:02.709Z,9.60
2017-08-17T03:32:31.781Z,9.43
2017-08-17T03:35:00.110Z,10.53
2017-08-17T03:37:28.423Z,10.47
2017-08-17T03:39:56.769Z,20.00
2017-08-17T03:42:25.082Z,14.73
2017-08-17T03:44:53.399Z,10.93
2017-08-17T03:47:21.729Z,7.93
2017-08-17T03:49:50.025Z,13.80
2017-08-17T03:52:18.349Z,11.93
2017-08-17T03:54:46.654Z,10.87
2017-08-17T03:57:15.910Z,9.30
2017-08-17T03:59:44.977Z,14.10
2017-08-17T04:02:13.316Z,10.10
2017-08-17T04:04:41.627Z,13.93
2017-08-17T04:07:09.962Z,12.30
2017-08-17T04:09:38.306Z,12.37
2017-08-17T04:12:06.638Z,8.87
2017-08-17T04:14:34.941Z,8.63
2017-08-17T04:17:03.285Z,12.43
2017-08-17T04:19:31.605Z,11.27
2017-08-17T04:21:59.924Z,30.23
2017-08-17T04:24:28.254Z,9.17
2017-08-17T04:26:56.562Z,25.63
2017-08-17T04:29:25.662Z,12.17
2017-08-17T04:31:54.743Z,11.83
2017-08-17T04:34:23.078Z,13.03
2017-08-17T04:36:51.394Z,12.20
2017-08-17T04:39:19.726Z,17.23
2017-08-17T04:41:48.053Z,22.50
2017-08-17T04:44:16.391Z,15.27
2017-08-17T04:46:44.701Z,18.17
2017-08-17T04:49:13.039Z,11.23
2017-08-17T04:51:56.519Z,11.80
2017-08-17T04:54:24.859Z,18.73
2017-08-17T04:57:10.849Z,14.23
2017-08-17T04:59:45.107Z,25.10
2017-08-17T05:02:13.417Z,20.33
2017-08-17T05:04:41.726Z,22.80
2017-08-17T05:07:10.050Z,22.33
2017-08-17T05:09:38.353Z,25.00
2017-08-17T05:12:06.686Z,10.60
2017-08-17T05:14:34.996Z,12.00
2017-08-17T05:17:04.095Z,12.77
2017-08-17T05:19:33.174Z,19.93
2017-08-17T05:22:01.506Z,10.60
2017-08-17T05:24:29.805Z,12.70
2017-08-17T05:26:58.129Z,12.93
2017-08-17T05:29:26.437Z,7.80
2017-08-17T05:31:54.768Z,9.93
2017-08-17T05:34:23.074Z,11.67
2017-08-17T05:36:51.403Z,9.13
2017-08-17T05:39:19.712Z,7.47
2017-08-17T05:41:48.019Z,9.60
2017-08-17T05:44:16.352Z,7.27
2017-08-17T05:46:44.665Z,8.00
2017-08-17T05:49:13.004Z,10.97
2017-08-17T05:51:41.314Z,11.30
2017-08-17T05:54:10.466Z,9.03
2017-08-17T05:56:38.780Z,8.60
2017-08-17T05:59:07.891Z,11.20
2017-08-17T06:01:36.199Z,8.63
2017-08-17T06:04:04.527Z,7.90
2017-08-17T06:06:32.825Z,20.37
2017-08-17T06:09:01.162Z,8.33
2017-08-17T06:11:29.467Z,10.10
2017-08-17T06:13:58.563Z,9.50
2017-08-17T06:16:27.646Z,10.20
2017-08-17T06:18:55.977Z,14.13
2017-08-17T06:21:24.315Z,10.70
2017-08-17T06:23:53.396Z,9.90
2017-08-17T06:26:21.709Z,8.67
2017-08-17T06:28:50.021Z,12.63
2017-08-17T06:31:18.344Z,9.53
2017-08-17T06:33:47.423Z,12.77
2017-08-17T06:36:15.759Z,12.10
2017-08-17T06:38:44.078Z,19.20
2017-08-17T06:41:12.425Z,17.23
2017-08-17T06:43:40.748Z,28.73
2017-08-17T06:46:09.075Z,23.40
2017-08-17T06:48:37.413Z,46.17
2017-08-17T06:51:06.485Z,52.70
2017-08-17T06:53:34.818Z,34.27
2017-08-17T06:56:03.137Z,26.80
2017-08-17T06:58:31.478Z,25.43
2017-08-17T07:00:59.795Z,24.10
2017-08-17T07:03:28.134Z,22.90
2017-08-17T07:05:56.460Z,29.37
2017-08-17T07:08:24.806Z,25.00
2017-08-17T07:10:53.127Z,28.40
2017-08-17T07:13:21.465Z,21.77
2017-08-17T07:15:49.785Z,25.73
2017-08-17T07:18:18.121Z,23.10
2017-08-17T07:20:46.441Z,35.33
2017-08-17T07:23:14.785Z,28.37
2017-08-17T07:25:43.110Z,26.97
2017-08-17T07:28:12.180Z,31.80
2017-08-17T07:30:40.513Z,24.63
2017-08-17T07:33:08.830Z,25.43
2017-08-17T07:35:37.167Z,20.60
2017-08-17T07:38:05.473Z,22.43
2017-08-17T07:40:33.806Z,21.30
2017-08-17T07:43:02.126Z,17.73
2017-08-17T07:45:30.463Z,21.47
2017-08-17T07:47:58.782Z,23.37
2017-08-17T07:50:27.115Z,27.73
2017-08-17T07:52:56.198Z,18.27
2017-08-17T07:55:25.326Z,22.20
2017-08-17T07:57:53.648Z,31.37
2017-08-17T08:00:21.994Z,27.03
2017-08-17T08:02:50.351Z,24.73
2017-08-17T08:05:18.678Z,25.03
2017-08-17T08:07:47.013Z,17.10
2017-08-17T08:10:15.331Z,21.43
2017-08-17T08:12:43.675Z,20.33
2017-08-17T08:15:11.989Z,21.40
2017-08-17T08:17:40.319Z,18.40
2017-08-17T08:20:09.402Z,17.13
2017-08-17T08:22:37.734Z,10.97
2017-08-17T08:25:06.138Z,12.33
2017-08-17T08:27:34.468Z,12.20
2017-08-17T08:30:02.784Z,10.67
2017-08-17T08:32:31.191Z,11.77
2017-08-17T08:34:59.523Z,13.70
2017-08-17T08:37:27.875Z,12.77
2017-08-17T08:39:56.940Z,11.53
2017-08-17T08:42:25.245Z,8.10
2017-08-17T08:44:53.562Z,8.27
2017-08-17T08:47:21.875Z,8.70
2017-08-17T08:49:50.202Z,8.47
2017-08-17T08:52:18.514Z,9.10
2017-08-17T08:54:46.839Z,9.70
2017-08-17T08:57:15.147Z,7.87
2017-08-17T08:59:43.473Z,8.47
2017-08-17T09:02:11.781Z,10.43
2017-08-17T09:04:40.117Z,19.37
2017-08-17T09:07:08.425Z,11.43
2017-08-17T09:09:36.750Z,8.73
2017-08-17T09:12:05.051Z,8.70
2017-08-17T09:14:33.383Z,9.23
2017-08-17T09:17:01.689Z,7.40
2017-08-17T09:19:29.993Z,6.40
2017-08-17T09:21:58.321Z,8.00
2017-08-17T09:24:26.642Z,6.27
2017-08-17T09:26:54.990Z,17.73
2017-08-17T09:29:23.303Z,8.03
2017-08-17T09:31:51.634Z,7.60
2017-08-17T09:34:19.955Z,6.20
2017-08-17T09:36:48.269Z,6.47
2017-08-17T09:39:16.587Z,8.63
2017-08-17T09:41:44.921Z,5.13
2017-08-17T09:44:13.234Z,6.03
2017-08-17T09:46:41.543Z,9.17
2017-08-17T09:49:09.887Z,5.43
2017-08-17T09:51:38.201Z,6.47
2017-08-17T09:54:06.522Z,5.20
2017-08-17T09:56:34.824Z,6.30
2017-08-17T09:59:03.167Z,4.93
2017-08-17T10:01:32.245Z,10.83
2017-08-17T10:04:00.565Z,4.70
2017-08-17T10:06:28.869Z,7.80
2017-08-17T10:08:57.185Z,5.63
2017-08-17T10:11:26.263Z,12.27
2017-08-17T10:13:55.389Z,5.20
2017-08-17T10:16:23.696Z,5.30
2017-08-17T10:18:52.009Z,5.50
2017-08-17T10:21:20.347Z,6.83
2017-08-17T10:23:48.655Z,7.17
2017-08-17T10:26:16.986Z,4.73
2017-08-17T10:28:45.297Z,8.10
2017-08-17T10:31:13.627Z,4.33
2017-08-17T10:33:41.934Z,5.30
2017-08-17T10:36:10.263Z,9.17
2017-08-17T10:38:38.571Z,12.67
2017-08-17T10:41:07.667Z,6.00
2017-08-17T10:43:35.970Z,5.47
2017-08-17T10:46:04.297Z,6.50
2017-08-17T10:48:32.607Z,5.43
2017-08-17T10:51:00.929Z,4.90
2017-08-17T10:53:29.230Z,5.87
2017-08-17T10:55:57.559Z,8.00
2017-08-17T10:58:25.894Z,16.30
2017-08-17T11:00:54.202Z,6.83
2017-08-17T11:03:22.526Z,5.80
2017-08-17T11:05:50.831Z,7.03
2017-08-17T11:08:19.158Z,5.13
2017-08-17T11:10:47.467Z,8.17
2017-08-17T11:13:15.802Z,6.63
2017-08-17T11:15:44.103Z,6.47
2017-08-17T11:18:12.405Z,7.83
2017-08-17T11:20:40.738Z,11.60
2017-08-17T11:23:09.050Z,8.63
2017-08-17T11:25:37.379Z,5.27
2017-08-17T11:28:05.681Z,4.30
2017-08-17T11:30:34.009Z,4.97
2017-08-17T11:33:02.318Z,9.43
2017-08-17T11:35:30.646Z,7.40
2017-08-17T11:38:40.822Z,8.93
2017-08-17T11:41:09.162Z,4.90
2017-08-17T11:43:37.483Z,11.30
2017-08-17T11:46:06.567Z,6.10
2017-08-17T11:48:34.414Z,5.17
2017-08-17T11:51:02.224Z,8.90
2017-08-17T11:53:31.322Z,11.63
2017-08-17T11:56:00.397Z,6.40
2017-08-17T11:58:28.734Z,7.47
2017-08-17T12:00:57.043Z,6.10
2017-08-17T12:03:25.374Z,8.37
2017-08-17T12:05:53.681Z,10.73
2017-08-17T12:08:22.026Z,11.80
2017-08-17T12:10:50.347Z,10.50
2017-08-17T12:13:18.694Z,6.80
2017-08-17T12:15:47.009Z,8.83
2017-08-17T12:18:15.345Z,5.70
2017-08-17T12:20:43.649Z,5.57
2017-08-17T12:23:11.979Z,5.03
2017-08-17T12:25:40.330Z,4.70
2017-08-17T12:28:08.643Z,5.43
2017-08-17T12:30:36.982Z,4.53
2017-08-17T12:33:05.291Z,5.60
2017-08-17T12:35:34.382Z,4.67
2017-08-17T12:38:03.459Z,6.43
2017-08-17T12:40:31.821Z,6.70
2017-08-17T12:43:00.125Z,12.80
2017-08-17T12:45:28.449Z,4.60
2017-08-17T12:47:56.753Z,9.43
2017-08-17T12:50:25.090Z,5.50
2017-08-17T12:52:53.401Z,4.80
2017-08-17T12:55:21.755Z,4.53
2017-08-17T12:57:50.066Z,5.70
2017-08-17T13:00:18.394Z,3.37
2017-08-17T13:02:46.694Z,8.83
2017-08-17T13:05:15.037Z,4.43
2017-08-17T13:07:43.357Z,9.90
2017-08-17T13:10:11.674Z,4.80
2017-08-17T13:12:40.012Z,4.43
2017-08-17T13:15:08.330Z,8.20
2017-08-17T13:17:36.654Z,5.13
2017-08-17T13:20:04.968Z,10.03
2017-08-17T13:22:33.297Z,4.80
2017-08-17T13:25:01.599Z,9.10
2017-08-17T13:27:29.936Z,5.60
2017-08-17T13:29:59.015Z,7.03
2017-08-17T13:32:27.350Z,7.30
2017-08-17T13:34:55.658Z,6.90
2017-08-17T13:37:23.961Z,3.43
2017-08-17T13:39:53.048Z,4.00
2017-08-17T13:42:21.352Z,9.27
2017-08-17T13:44:49.673Z,12.27
2017-08-17T13:47:17.985Z,6.20
2017-08-17T13:49:46.316Z,3.57
2017-08-17T13:52:14.644Z,3.97
2017-08-17T13:54:43.750Z,4.80
2017-08-17T13:57:12.822Z,4.83
2017-08-17T13:59:41.149Z,6.03
2017-08-17T14:02:09.456Z,6.00
2017-08-17T14:04:37.779Z,7.90
2017-08-17T14:07:06.111Z,6.13
2017-08-17T14:09:34.415Z,3.70
2017-08-17T14:12:02.753Z,4.00
2017-08-17T14:14:31.067Z,7.00
2017-08-17T14:16:59.403Z,14.10
2017-08-17T14:19:27.729Z,3.10
2017-08-17T14:21:56.058Z,4.80
2017-08-17T14:24:24.361Z,5.23
2017-08-17T14:26:52.691Z,3.37
2017-08-17T14:29:21.010Z,3.97
2017-08-17T14:31:49.346Z,5.83
2017-08-17T14:34:17.660Z,5.03
2017-08-17T14:36:46.886Z,4.20
2017-08-17T14:39:15.210Z,3.50
2017-08-17T14:41:43.530Z,7.87
2017-08-17T14:44:11.863Z,4.63
2017-08-17T14:46:40.183Z,4.17
2017-08-17T14:49:08.510Z,5.13
2017-08-17T14:51:37.582Z,10.00
2017-08-17T14:54:05.914Z,9.50
2017-08-17T14:56:34.219Z,5.80
2017-08-17T14:59:02.551Z,5.17
2017-08-17T15:01:30.862Z,6.20
2017-08-17T15:03:59.217Z,8.30
2017-08-17T15:06:27.529Z,4.50
2017-08-17T15:08:55.843Z,7.60
2017-08-17T15:11:24.937Z,3.87
2017-08-17T15:13:54.018Z,6.47
2017-08-17T15:16:22.350Z,3.73
2017-08-17T15:18:50.663Z,3.93
2017-08-17T15:21:18.990Z,7.40
2017-08-17T15:23:47.304Z,4.13
2017-08-17T15:26:15.647Z,3.03
2017-08-17T15:28:43.965Z,6.20
2017-08-17T15:31:12.292Z,5.23
2017-08-17T15:33:40.593Z,3.00
2017-08-17T15:36:08.935Z,7.60
2017-08-17T15:38:38.007Z,6.80
2017-08-17T15:41:06.315Z,6.40
2017-08-17T15:43:34.637Z,8.07
2017-08-17T15:46:02.947Z,6.40
2017-08-17T15:48:31.286Z,8.53
2017-08-17T15:50:59.590Z,3.50
2017-08-17T15:53:27.929Z,8.80
2017-08-17T15:55:56.242Z,10.40
2017-08-17T15:58:24.586Z,6.27
2017-08-17T16:00:52.896Z,6.93
2017-08-17T16:03:21.222Z,5.93
2017-08-17T16:05:49.536Z,3.97
2017-08-17T16:08:17.866Z,4.77
2017-08-17T16:10:46.942Z,5.90
2017-08-17T16:13:15.277Z,5.43
2017-08-17T16:15:43.581Z,9.60
2017-08-17T16:18:11.926Z,3.60
2017-08-17T16:20:40.235Z,4.10
2017-08-17T16:23:08.542Z,3.50
2017-08-17T16:25:37.647Z,3.73
2017-08-17T16:28:06.719Z,6.60
2017-08-17T16:30:35.045Z,4.37
2017-08-17T16:33:03.376Z,3.83
2017-08-17T16:35:31.710Z,5.23
2017-08-17T16:38:00.018Z,4.80
2017-08-17T16:40:28.367Z,3.20
2017-08-17T16:42:56.671Z,4.97
2017-08-17T16:45:25.000Z,5.73
2017-08-17T16:47:53.315Z,8.67
2017-08-17T16:50:21.660Z,8.80
2017-08-17T16:52:49.976Z,9.80
2017-08-17T16:55:21.785Z,3.80
2017-08-17T16:57:50.858Z,7.03
2017-08-17T17:00:19.160Z,4.23
2017-08-17T17:02:50.940Z,16.97
2017-08-17T17:05:19.241Z,2.93
2017-08-17T17:07:47.569Z,3.57
2017-08-17T17:10:16.656Z,6.20
2017-08-17T17:12:44.987Z,5.37
2017-08-17T17:15:13.298Z,4.10
2017-08-17T17:17:41.634Z,4.87
2017-08-17T17:20:09.950Z,6.50
2017-08-17T17:22:38.293Z,8.33
2017-08-17T17:25:06.614Z,6.43
2017-08-17T17:27:34.934Z,4.87
2017-08-17T17:30:03.268Z,2.77
2017-08-17T17:32:31.587Z,2.60
2017-08-17T17:34:59.939Z,7.10
2017-08-17T17:37:28.264Z,5.80
2017-08-17T17:39:56.722Z,6.17
2017-08-17T17:42:25.025Z,3.20
2017-08-17T17:44:53.357Z,2.83
2017-08-17T17:47:21.675Z,3.27
2017-08-17T17:49:49.996Z,4.50
2017-08-17T17:52:18.299Z,4.43
2017-08-17T17:54:47.412Z,4.00
2017-08-17T17:57:15.722Z,7.07
2017-08-17T17:59:44.025Z,4.70
2017-08-17T18:02:12.367Z,3.90
2017-08-17T18:04:40.675Z,3.07
2017-08-17T18:07:09.008Z,2.80
2017-08-17T18:09:37.333Z,4.60
2017-08-17T18:12:05.670Z,5.70
2017-08-17T18:14:33.977Z,6.23
2017-08-17T18:17:02.308Z,2.57
2017-08-17T18:19:43.246Z,4.90
2017-08-17T18:22:11.575Z,4.87
2017-08-17T18:24:39.936Z,2.67
2017-08-17T18:27:08.441Z,5.57
2017-08-17T18:29:36.747Z,6.90
2017-08-17T18:32:05.094Z,7.50
2017-08-17T18:34:33.533Z,2.87
2017-08-17T18:37:01.847Z,5.17
2017-08-17T18:39:30.171Z,5.50
2017-08-17T18:41:58.477Z,2.97
2017-08-17T18:44:27.748Z,5.13
2017-08-17T18:46:56.055Z,7.53
2017-08-17T18:49:25.356Z,8.47
2017-08-17T18:51:54.424Z,3.83
2017-08-17T18:54:22.755Z,5.93
2017-08-17T18:56:51.062Z,9.63
2017-08-17T18:59:19.390Z,8.53
2017-08-17T19:01:47.698Z,2.63
2017-08-17T19:04:16.038Z,3.90
2017-08-17T19:06:45.765Z,4.87
2017-08-17T19:09:14.097Z,4.13
2017-08-17T19:11:42.406Z,3.40
2017-08-17T19:14:10.709Z,5.33
2017-08-17T19:16:45.433Z,6.00
2017-08-17T19:19:13.745Z,9.27
2017-08-17T19:21:42.073Z,5.10
2017-08-17T19:24:11.173Z,8.63
2017-08-17T19:26:40.272Z,3.60
2017-08-17T19:29:08.579Z,4.10
2017-08-17T19:31:36.905Z,3.07
2017-08-17T19:34:05.213Z,8.70
2017-08-17T19:36:34.322Z,10.20
2017-08-17T19:39:02.649Z,3.20
2017-08-17T19:41:30.981Z,3.60
2017-08-17T19:43:59.289Z,3.80
2017-08-17T19:46:27.639Z,3.30
2017-08-17T19:48:55.955Z,4.03
2017-08-17T19:51:24.286Z,3.07
2017-08-17T19:53:52.622Z,6.13
2017-08-17T19:56:20.936Z,5.90
2017-08-17T19:58:50.033Z,7.77
2017-08-17T20:01:18.352Z,6.70
2017-08-17T20:03:46.679Z,6.70
2017-08-17T20:06:14.997Z,13.20
2017-08-17T20:08:43.342Z,6.00
2017-08-17T20:11:11.645Z,6.10
2017-08-17T20:13:39.982Z,9.23
2017-08-17T20:16:09.064Z,4.10
2017-08-17T20:18:37.426Z,17.83
2017-08-17T20:21:05.758Z,4.40
2017-08-17T20:23:34.066Z,4.00
2017-08-17T20:26:02.394Z,4.27
2017-08-17T20:28:31.457Z,8.23
2017-08-17T20:30:59.791Z,4.97
2017-08-17T20:33:28.115Z,14.33
2017-08-17T20:35:56.453Z,7.87
2017-08-17T20:38:24.767Z,5.07
2017-08-17T20:40:53.106Z,4.10
2017-08-17T20:43:21.422Z,15.50
2017-08-17T20:45:49.741Z,6.20
2017-08-17T20:48:18.815Z,14.07
2017-08-17T20:50:47.172Z,8.80
2017-08-17T20:53:15.643Z,5.27
2017-08-17T20:55:43.961Z,9.53
2017-08-17T20:58:13.088Z,10.10
2017-08-17T21:00:41.512Z,9.70
2017-08-17T21:03:09.846Z,15.40
2017-08-17T21:05:38.163Z,5.03
2017-08-17T21:08:06.503Z,5.53
2017-08-17T21:10:34.815Z,7.13
2017-08-17T21:16:03.075Z,8.53
2017-08-17T21:18:32.170Z,5.73
2017-08-17T21:21:00.491Z,10.93
2017-08-17T21:23:28.843Z,7.63
2017-08-17T21:25:57.150Z,13.23
2017-08-17T21:28:25.471Z,11.57
2017-08-17T21:30:54.582Z,12.20
2017-08-17T21:33:22.898Z,13.87
2017-08-17T21:35:51.233Z,15.10
2017-08-17T21:38:20.305Z,8.43
2017-08-17T21:40:48.625Z,6.90
2017-08-17T21:43:16.928Z,8.50
2017-08-17T21:45:45.258Z,7.07
2017-08-17T21:48:14.330Z,7.80
2017-08-17T21:50:42.671Z,13.27
2017-08-17T21:53:10.985Z,5.60
2017-08-17T21:55:39.318Z,5.63
2017-08-17T21:58:07.626Z,12.63
2017-08-17T22:00:35.953Z,9.40
2017-08-17T22:03:04.305Z,7.43
2017-08-17T22:05:32.610Z,7.77
2017-08-17T22:08:01.702Z,9.20
2017-08-17T22:10:30.010Z,8.57
2017-08-17T22:12:58.343Z,9.73
2017-08-17T22:15:27.420Z,7.30
2017-08-17T22:17:55.755Z,5.37
2017-08-17T22:20:24.062Z,5.40
2017-08-17T22:22:52.383Z,5.13
2017-08-17T22:25:21.470Z,14.23
2017-08-17T22:27:49.817Z,10.03
2017-08-17T22:30:18.138Z,8.63
2017-08-17T22:32:47.219Z,8.03
2017-08-17T22:35:15.552Z,5.43
2017-08-17T22:37:43.867Z,12.27
2017-08-17T22:40:12.198Z,5.20
2017-08-17T22:42:40.506Z,5.50
2017-08-17T22:45:08.839Z,5.43
2017-08-17T22:47:37.167Z,10.97
2017-08-17T22:50:25.064Z,9.17
2017-08-17T22:52:53.376Z,8.33
2017-08-17T22:55:21.699Z,6.40
2017-08-17T22:57:50.002Z,10.80
2017-08-17T23:00:18.334Z,16.83
2017-08-17T23:02:47.426Z,13.73
2017-08-17T23:05:16.568Z,5.60
2017-08-17T23:07:44.886Z,9.33
2017-08-17T23:10:13.206Z,10.83
2017-08-17T23:12:41.550Z,5.73
2017-08-17T23:15:09.856Z,10.40
2017-08-17T23:17:38.202Z,5.93
2017-08-17T23:20:06.507Z,5.57
2017-08-17T23:22:34.856Z,8.70
2017-08-17T23:25:03.177Z,7.37
2017-08-17T23:30:26.354Z,5.23
2017-08-17T23:32:54.686Z,10.67
2017-08-17T23:35:22.994Z,5.37
2017-08-17T23:37:54.459Z,10.03
2017-08-17T23:40:23.545Z,5.23
2017-08-17T23:42:51.877Z,8.53
2017-08-17T23:45:20.176Z,9.03
2017-08-17T23:47:48.513Z,9.93
2017-08-17T23:50:16.822Z,10.63
2017-08-17T23:52:45.156Z,6.80
2017-08-17T23:55:14.226Z,7.70
2017-08-17T23:57:42.535Z,6.00
